createdAt,value
2022-10-13T00:01:13.497Z,10.31
2022-10-13T00:03:41.808Z,10.29
2022-10-13T00:06:11.108Z,10.26
2022-10-13T00:08:38.992Z,10.36
2022-10-13T00:11:18.358Z,10.37
2022-10-13T00:13:46.207Z,10.42
2022-10-13T00:16:14.882Z,10.43
2022-10-13T00:18:41.855Z,10.39
2022-10-13T00:21:10.943Z,10.39
2022-10-13T00:23:38.065Z,10.42
2022-10-13T00:26:06.957Z,10.46
2022-10-13T00:28:33.531Z,10.44
2022-10-13T00:31:00.180Z,10.39
2022-10-13T00:33:26.787Z,10.53
2022-10-13T00:35:53.654Z,10.52
2022-10-13T00:38:21.996Z,10.54
2022-10-13T00:40:51.554Z,10.45
2022-10-13T00:43:45.514Z,10.50
2022-10-13T00:46:11.883Z,10.53
2022-10-13T00:48:38.646Z,10.54
2022-10-13T00:51:05.720Z,10.57
2022-10-13T00:53:36.355Z,10.60
2022-10-13T00:56:03.366Z,10.55
2022-10-13T00:58:31.698Z,10.67
2022-10-13T01:00:59.103Z,10.64
2022-10-13T01:03:26.399Z,10.63
2022-10-13T01:05:57.081Z,10.71
2022-10-13T01:08:23.599Z,10.78
2022-10-13T01:10:59.198Z,10.77
2022-10-13T01:13:28.514Z,10.68
2022-10-13T01:16:25.024Z,10.45
2022-10-13T01:19:21.178Z,10.59
2022-10-13T01:22:08.612Z,10.63
2022-10-13T01:24:52.841Z,10.47
2022-10-13T01:27:46.364Z,10.69
2022-10-13T01:30:20.575Z,10.60
2022-10-13T01:33:17.090Z,10.59
2022-10-13T01:35:52.800Z,10.65
2022-10-13T01:38:25.184Z,10.68
2022-10-13T01:41:12.960Z,10.76
2022-10-13T01:43:45.619Z,10.68
2022-10-13T01:46:26.640Z,10.77
2022-10-13T01:48:56.396Z,10.65
2022-10-13T01:51:25.558Z,10.76
2022-10-13T01:53:52.095Z,10.74
2022-10-13T01:56:18.677Z,10.98
2022-10-13T01:58:47.953Z,11.02
2022-10-13T02:01:22.486Z,10.97
2022-10-13T02:04:04.982Z,10.92
2022-10-13T02:06:34.666Z,10.83
2022-10-13T02:09:21.318Z,10.87
2022-10-13T02:12:05.585Z,10.76
2022-10-13T02:14:34.962Z,10.72
2022-10-13T02:17:04.867Z,10.70
2022-10-13T02:19:35.834Z,10.84
2022-10-13T02:22:03.223Z,10.79
2022-10-13T02:24:29.853Z,10.73
2022-10-13T02:26:56.563Z,10.64
2022-10-13T02:29:23.460Z,10.82
2022-10-13T02:31:49.924Z,10.93
2022-10-13T02:34:16.562Z,10.91
2022-10-13T02:36:43.028Z,10.88
2022-10-13T02:39:11.026Z,10.83
2022-10-13T02:41:37.698Z,10.85
2022-10-13T02:44:04.624Z,10.96
2022-10-13T02:46:31.045Z,10.91
2022-10-13T02:48:57.689Z,10.88
2022-10-13T02:51:24.121Z,10.57
2022-10-13T02:53:50.592Z,10.56
2022-10-13T02:56:17.018Z,10.58
2022-10-13T02:58:43.542Z,10.60
2022-10-13T03:01:12.609Z,10.73
2022-10-13T03:03:39.613Z,10.70
2022-10-13T03:06:06.720Z,10.68
2022-10-13T03:08:34.764Z,10.79
2022-10-13T03:11:01.802Z,10.74
2022-10-13T03:13:28.335Z,10.85
2022-10-13T03:15:54.842Z,10.88
2022-10-13T03:18:21.373Z,10.88
2022-10-13T03:20:56.985Z,10.87
2022-10-13T03:23:23.462Z,10.91
2022-10-13T03:25:49.865Z,11.04
2022-10-13T03:28:16.279Z,10.96
2022-10-13T03:30:42.849Z,11.01
2022-10-13T03:33:09.344Z,11.02
2022-10-13T03:35:36.535Z,11.02
2022-10-13T03:38:02.935Z,10.98
2022-10-13T03:40:29.350Z,10.95
2022-10-13T03:42:55.751Z,10.96
2022-10-13T03:45:22.298Z,11.09
2022-10-13T03:47:48.707Z,11.17
2022-10-13T03:50:15.405Z,11.06
2022-10-13T03:52:41.862Z,11.02
2022-10-13T03:55:08.338Z,11.14
2022-10-13T03:57:34.801Z,11.09
2022-10-13T04:00:01.688Z,11.10
2022-10-13T04:02:28.071Z,11.02
2022-10-13T04:04:54.602Z,10.98
2022-10-13T04:07:21.054Z,10.99
2022-10-13T04:09:47.487Z,10.99
2022-10-13T04:12:17.167Z,10.96
2022-10-13T04:14:46.894Z,11.02
2022-10-13T04:17:13.289Z,11.03
2022-10-13T04:19:39.733Z,11.11
2022-10-13T04:22:06.147Z,11.08
2022-10-13T04:24:32.568Z,11.09
2022-10-13T04:26:58.967Z,11.08
2022-10-13T04:29:25.370Z,11.05
2022-10-13T04:31:51.900Z,11.11
2022-10-13T04:34:18.309Z,11.27
2022-10-13T04:36:44.777Z,11.29
2022-10-13T04:39:11.131Z,11.20
2022-10-13T04:41:37.582Z,11.18
2022-10-13T04:44:06.071Z,11.17
2022-10-13T04:46:32.472Z,11.16
2022-10-13T04:48:58.911Z,11.18
2022-10-13T04:51:26.500Z,11.22
2022-10-13T04:53:57.787Z,11.12
2022-10-13T04:56:24.827Z,11.23
2022-10-13T04:58:51.497Z,11.28
2022-10-13T05:01:22.403Z,11.27
2022-10-13T05:03:58.054Z,11.26
2022-10-13T05:06:30.667Z,11.29
2022-10-13T05:08:57.539Z,11.24
2022-10-13T05:11:26.574Z,11.12
2022-10-13T05:13:53.361Z,11.14
2022-10-13T05:16:22.178Z,11.08
2022-10-13T05:18:50.157Z,11.22
2022-10-13T05:21:18.983Z,11.31
2022-10-13T05:23:46.043Z,11.38
2022-10-13T05:26:15.791Z,11.30
2022-10-13T05:28:42.684Z,11.24
2022-10-13T05:31:14.842Z,11.29
2022-10-13T05:33:42.242Z,11.34
2022-10-13T05:36:14.887Z,11.21
2022-10-13T05:38:41.397Z,11.33
2022-10-13T05:41:10.632Z,11.16
2022-10-13T05:43:39.278Z,11.16
2022-10-13T05:46:06.765Z,11.28
2022-10-13T05:48:33.170Z,11.29
2022-10-13T05:51:01.883Z,11.28
2022-10-13T05:53:32.213Z,11.34
2022-10-13T05:56:06.222Z,11.39
2022-10-13T05:58:43.756Z,11.38
2022-10-13T06:01:13.457Z,11.36
2022-10-13T06:03:42.048Z,11.28
2022-10-13T06:06:09.494Z,11.26
2022-10-13T06:08:36.885Z,11.35
2022-10-13T06:11:04.050Z,11.30
2022-10-13T06:13:30.385Z,11.32
2022-10-13T06:15:56.804Z,11.33
2022-10-13T06:18:23.170Z,11.31
2022-10-13T06:20:49.623Z,11.34
2022-10-13T06:23:16.001Z,11.33
2022-10-13T06:25:52.610Z,11.29
2022-10-13T06:28:19.716Z,11.36
2022-10-13T06:30:49.524Z,11.34
2022-10-13T06:33:15.899Z,11.31
2022-10-13T06:35:42.290Z,11.35
2022-10-13T06:38:09.404Z,11.29
2022-10-13T06:40:35.816Z,11.33
2022-10-13T06:43:02.281Z,11.32
2022-10-13T06:45:28.811Z,11.29
2022-10-13T06:47:55.484Z,11.25
2022-10-13T06:50:23.064Z,11.27
2022-10-13T06:52:49.729Z,11.34
2022-10-13T06:55:17.556Z,11.36
2022-10-13T06:57:44.023Z,11.40
2022-10-13T07:00:11.077Z,11.47
2022-10-13T07:02:37.576Z,11.41
2022-10-13T07:05:04.157Z,11.45
2022-10-13T07:07:30.529Z,11.44
2022-10-13T07:09:57.091Z,11.44
2022-10-13T07:12:23.480Z,11.47
2022-10-13T07:14:49.921Z,11.55
2022-10-13T07:17:16.417Z,11.60
2022-10-13T07:19:42.858Z,11.54
2022-10-13T07:22:09.221Z,11.51
2022-10-13T07:24:35.565Z,11.56
2022-10-13T07:27:07.487Z,11.66
2022-10-13T07:29:34.372Z,11.66
2022-10-13T07:32:00.758Z,11.65
2022-10-13T07:34:27.230Z,11.58
2022-10-13T07:36:53.712Z,11.66
2022-10-13T07:39:20.061Z,11.67
2022-10-13T07:41:50.931Z,11.71
2022-10-13T07:44:17.891Z,11.71
2022-10-13T07:46:44.325Z,11.65
2022-10-13T07:49:13.727Z,11.75
2022-10-13T07:51:43.314Z,11.68
2022-10-13T07:54:10.261Z,11.70
2022-10-13T07:56:36.679Z,11.76
2022-10-13T07:59:05.221Z,11.71
2022-10-13T08:01:32.136Z,11.84
2022-10-13T08:03:59.220Z,11.78
2022-10-13T08:06:26.579Z,11.70
2022-10-13T08:08:53.058Z,11.79
2022-10-13T08:11:20.679Z,11.71
2022-10-13T08:13:51.894Z,11.79
2022-10-13T08:16:18.994Z,11.75
2022-10-13T08:18:46.281Z,11.92
2022-10-13T08:21:45.838Z,11.89
2022-10-13T08:24:03.555Z,11.77
2022-10-13T08:26:31.138Z,11.78
2022-10-13T08:29:16.573Z,11.86
2022-10-13T08:31:44.764Z,11.91
2022-10-13T08:34:12.265Z,12.02
2022-10-13T08:36:39.711Z,12.01
2022-10-13T08:39:06.803Z,11.99
2022-10-13T08:41:39.145Z,11.97
2022-10-13T08:47:13.233Z,12.00
2022-10-13T08:49:42.237Z,11.99
2022-10-13T08:52:28.536Z,11.91
2022-10-13T08:54:56.349Z,12.00
2022-10-13T08:57:23.808Z,12.05
2022-10-13T08:59:52.288Z,12.09
2022-10-13T09:02:30.517Z,11.97
2022-10-13T09:05:02.225Z,11.96
2022-10-13T09:07:32.775Z,12.08
2022-10-13T09:09:59.186Z,11.93
2022-10-13T09:12:26.378Z,11.97
2022-10-13T09:15:03.236Z,11.99
2022-10-13T09:17:30.072Z,12.02
2022-10-13T09:20:07.131Z,11.89
2022-10-13T09:22:36.461Z,12.01
2022-10-13T09:25:09.240Z,12.13
2022-10-13T09:27:49.504Z,12.14
2022-10-13T09:30:27.817Z,12.11
2022-10-13T09:33:07.228Z,12.08
2022-10-13T09:35:35.070Z,12.09
2022-10-13T09:38:04.299Z,12.02
2022-10-13T09:40:32.229Z,12.11
2022-10-13T09:43:00.934Z,12.26
2022-10-13T09:45:30.385Z,12.22
2022-10-13T09:48:04.772Z,12.23
2022-10-13T09:50:33.540Z,12.16
2022-10-13T09:53:22.927Z,12.18
2022-10-13T09:55:49.675Z,12.24
2022-10-13T09:58:25.316Z,12.23
2022-10-13T10:00:53.747Z,12.37
2022-10-13T10:03:33.596Z,12.29
2022-10-13T10:06:07.095Z,12.22
2022-10-13T10:09:03.867Z,12.32
2022-10-13T10:11:39.746Z,12.26
2022-10-13T10:14:27.324Z,12.11
2022-10-13T10:17:17.263Z,12.04
2022-10-13T10:20:09.877Z,12.10
2022-10-13T10:22:52.790Z,12.23
2022-10-13T10:25:40.063Z,12.35
2022-10-13T10:28:22.783Z,12.29
2022-10-13T10:31:10.472Z,12.50
2022-10-13T10:34:01.486Z,12.53
2022-10-13T10:36:39.990Z,12.44
2022-10-13T10:39:29.369Z,12.47
2022-10-13T10:42:03.518Z,12.40
2022-10-13T10:44:35.572Z,12.39
2022-10-13T10:47:06.770Z,12.49
2022-10-13T10:49:36.617Z,12.51
2022-10-13T10:52:07.062Z,12.48
2022-10-13T10:54:49.491Z,12.49
2022-10-13T10:57:32.194Z,12.47
2022-10-13T11:00:06.605Z,12.47
2022-10-13T11:02:54.564Z,12.52
2022-10-13T11:05:22.153Z,12.54
2022-10-13T11:07:55.806Z,12.43
2022-10-13T11:10:24.920Z,12.50
2022-10-13T11:12:51.347Z,12.45
2022-10-13T11:15:42.062Z,12.49
2022-10-13T11:18:45.910Z,12.47
2022-10-13T11:21:12.350Z,12.45
2022-10-13T11:23:45.402Z,12.33
2022-10-13T11:26:31.212Z,12.18
2022-10-13T11:28:58.872Z,12.39
2022-10-13T11:31:32.155Z,12.40
2022-10-13T11:34:02.450Z,12.43
2022-10-13T11:36:44.177Z,12.40
2022-10-13T11:39:27.619Z,12.18
2022-10-13T11:42:12.387Z,12.21
2022-10-13T11:44:57.943Z,12.18
2022-10-13T11:47:30.524Z,12.22
2022-10-13T11:50:39.555Z,12.26
2022-10-13T11:53:22.836Z,12.18
2022-10-13T11:55:57.534Z,12.20
2022-10-13T11:58:31.862Z,12.15
2022-10-13T12:01:06.637Z,12.09
2022-10-13T12:03:34.578Z,12.20
2022-10-13T12:06:05.020Z,12.24
2022-10-13T12:08:34.652Z,12.13
2022-10-13T12:11:07.476Z,12.23
2022-10-13T12:13:35.917Z,12.19
2022-10-13T12:16:07.253Z,11.96
2022-10-13T12:18:38.081Z,12.01
2022-10-13T12:21:21.264Z,11.88
2022-10-13T12:23:49.933Z,11.85
2022-10-13T12:26:21.585Z,11.80
2022-10-13T12:29:02.109Z,11.71
2022-10-13T12:31:38.333Z,11.66
2022-10-13T12:34:05.204Z,11.67
2022-10-13T12:36:34.053Z,11.66
2022-10-13T12:39:07.807Z,11.65
2022-10-13T12:41:42.237Z,11.66
2022-10-13T12:44:14.832Z,11.67
2022-10-13T12:46:58.711Z,11.46
2022-10-13T12:49:27.089Z,11.61
2022-10-13T12:52:20.174Z,11.56
2022-10-13T12:54:52.252Z,11.59
2022-10-13T12:57:21.698Z,11.61
2022-10-13T12:59:48.342Z,11.58
2022-10-13T13:02:22.569Z,11.54
2022-10-13T13:04:49.179Z,11.60
2022-10-13T13:07:36.863Z,11.64
2022-10-13T13:10:09.344Z,11.61
2022-10-13T13:12:36.899Z,11.53
2022-10-13T13:15:30.667Z,11.58
2022-10-13T13:18:36.754Z,11.61
2022-10-13T13:21:14.521Z,11.51
2022-10-13T13:23:42.613Z,11.60
2022-10-13T13:26:13.067Z,11.61
2022-10-13T13:28:44.600Z,11.58
2022-10-13T13:31:12.908Z,11.63
2022-10-13T13:33:40.125Z,11.59
2022-10-13T13:36:21.928Z,11.58
2022-10-13T13:38:49.435Z,11.60
2022-10-13T13:41:16.917Z,11.60
2022-10-13T13:43:43.472Z,11.58
2022-10-13T13:46:17.068Z,11.55
2022-10-13T13:48:43.647Z,11.56
2022-10-13T13:51:10.499Z,11.52
2022-10-13T13:53:37.021Z,11.42
2022-10-13T13:56:03.625Z,11.48
2022-10-13T13:58:30.019Z,11.49
2022-10-13T14:00:56.472Z,11.43
2022-10-13T14:03:22.809Z,11.54
2022-10-13T14:05:49.251Z,11.60
2022-10-13T14:08:15.650Z,11.60
2022-10-13T14:10:42.161Z,11.63
2022-10-13T14:13:08.509Z,11.63
2022-10-13T14:15:34.947Z,11.63
2022-10-13T14:18:01.371Z,11.62
2022-10-13T14:20:27.882Z,11.63
2022-10-13T14:22:54.421Z,11.64
2022-10-13T14:25:20.880Z,11.66
2022-10-13T14:27:47.355Z,11.71
2022-10-13T14:30:14.170Z,11.76
2022-10-13T14:32:40.622Z,11.82
2022-10-13T14:35:07.372Z,11.81
2022-10-13T14:37:35.307Z,11.85
2022-10-13T14:40:02.044Z,11.92
2022-10-13T14:42:28.498Z,11.95
2022-10-13T14:44:54.864Z,11.96
2022-10-13T14:47:21.669Z,12.00
2022-10-13T14:49:48.251Z,12.05
2022-10-13T14:52:14.737Z,12.07
2022-10-13T14:54:44.852Z,12.02
2022-10-13T14:57:15.643Z,11.95
2022-10-13T14:59:42.641Z,11.91
2022-10-13T15:02:13.212Z,11.91
2022-10-13T15:04:39.919Z,11.88
2022-10-13T15:07:06.346Z,11.94
2022-10-13T15:09:45.220Z,11.99
2022-10-13T15:12:19.486Z,11.90
2022-10-13T15:14:47.198Z,11.91
2022-10-13T15:17:13.625Z,11.91
2022-10-13T15:19:39.975Z,11.92
2022-10-13T15:22:06.374Z,11.83
2022-10-13T15:24:32.736Z,11.88
2022-10-13T15:26:59.118Z,11.93
2022-10-13T15:29:25.593Z,11.91
2022-10-13T15:31:52.083Z,11.91
2022-10-13T15:34:18.525Z,11.92
2022-10-13T15:36:45.197Z,11.94
2022-10-13T15:39:11.854Z,11.95
2022-10-13T15:41:38.229Z,12.01
2022-10-13T15:44:05.654Z,12.01
2022-10-13T15:46:32.087Z,12.04
2022-10-13T15:48:59.918Z,11.91
2022-10-13T15:51:27.073Z,11.94
2022-10-13T15:53:55.097Z,12.00
2022-10-13T15:56:21.461Z,12.06
2022-10-13T15:58:47.903Z,12.10
2022-10-13T16:01:14.630Z,12.02
2022-10-13T16:03:41.660Z,12.07
2022-10-13T16:06:10.309Z,12.07
2022-10-13T16:08:39.490Z,12.04
2022-10-13T16:11:10.445Z,12.08
2022-10-13T16:13:37.173Z,12.03
2022-10-13T16:16:03.842Z,11.94
2022-10-13T16:18:33.908Z,11.92
2022-10-13T16:21:00.453Z,11.88
2022-10-13T16:23:27.633Z,11.86
2022-10-13T16:25:54.090Z,11.79
2022-10-13T16:28:20.565Z,11.69
2022-10-13T16:30:46.973Z,11.71
2022-10-13T16:33:13.402Z,11.71
2022-10-13T16:35:39.832Z,11.72
2022-10-13T16:38:06.364Z,11.67
2022-10-13T16:40:32.846Z,11.65
2022-10-13T16:42:59.231Z,11.63
2022-10-13T16:45:41.402Z,11.59
2022-10-13T16:48:12.749Z,11.57
2022-10-13T16:50:39.217Z,11.54
2022-10-13T16:53:05.686Z,11.54
2022-10-13T16:55:32.057Z,11.54
2022-10-13T16:57:58.438Z,11.52
2022-10-13T17:00:24.878Z,11.40
2022-10-13T17:02:51.473Z,11.42
2022-10-13T17:05:17.900Z,11.36
2022-10-13T17:07:44.286Z,11.31
2022-10-13T17:10:11.681Z,11.15
2022-10-13T17:12:38.084Z,11.10
2022-10-13T17:15:04.975Z,11.15
2022-10-13T17:17:31.489Z,11.05
2022-10-13T17:19:57.950Z,11.02
2022-10-13T17:22:24.329Z,11.02
2022-10-13T17:24:50.733Z,10.97
2022-10-13T17:27:17.160Z,10.92
2022-10-13T17:29:43.614Z,10.90
2022-10-13T17:32:10.341Z,10.95
2022-10-13T17:34:36.937Z,10.83
2022-10-13T17:37:04.561Z,10.66
2022-10-13T17:39:31.298Z,10.65
2022-10-13T17:41:57.789Z,10.68
2022-10-13T17:44:24.223Z,10.70
2022-10-13T17:46:50.725Z,10.61
2022-10-13T17:49:18.152Z,10.54
2022-10-13T17:51:45.532Z,10.60
2022-10-13T17:54:16.015Z,10.60
2022-10-13T17:56:43.633Z,10.51
2022-10-13T17:59:10.181Z,10.46
2022-10-13T18:01:37.174Z,10.47
2022-10-13T18:04:09.907Z,10.47
2022-10-13T18:06:40.599Z,10.36
2022-10-13T18:09:10.170Z,10.38
2022-10-13T18:11:37.228Z,10.31
2022-10-13T18:14:04.991Z,10.21
2022-10-13T18:16:35.523Z,10.24
2022-10-13T18:19:02.683Z,10.26
2022-10-13T18:21:29.468Z,10.28
2022-10-13T18:24:01.412Z,10.33
2022-10-13T18:26:31.777Z,10.30
2022-10-13T18:28:58.277Z,10.30
2022-10-13T18:31:27.918Z,10.27
2022-10-13T18:33:56.339Z,10.25
2022-10-13T18:36:28.178Z,10.26
2022-10-13T18:38:56.646Z,10.23
2022-10-13T18:41:24.185Z,10.20
2022-10-13T18:43:50.820Z,10.12
2022-10-13T18:46:17.636Z,10.11
2022-10-13T18:48:44.130Z,10.10
2022-10-13T18:51:13.335Z,10.09
2022-10-13T18:53:41.709Z,9.91
2022-10-13T18:56:12.072Z,10.08
2022-10-13T18:58:38.538Z,10.01
2022-10-13T19:01:08.697Z,9.97
2022-10-13T19:03:36.961Z,10.04
2022-10-13T19:06:04.627Z,10.06
2022-10-13T19:08:31.029Z,10.02
2022-10-13T19:10:57.969Z,9.98
2022-10-13T19:13:26.090Z,9.98
2022-10-13T19:15:59.467Z,9.91
2022-10-13T19:18:25.862Z,9.83
2022-10-13T19:20:53.408Z,9.83
2022-10-13T19:23:19.990Z,9.84
2022-10-13T19:25:46.472Z,9.81
2022-10-13T19:28:13.017Z,9.91
2022-10-13T19:30:39.807Z,9.86
2022-10-13T19:33:07.705Z,9.78
2022-10-13T19:35:42.231Z,9.72
2022-10-13T19:38:08.849Z,9.76
2022-10-13T19:40:40.077Z,9.76
2022-10-13T19:43:09.407Z,9.73
2022-10-13T19:45:36.158Z,9.83
2022-10-13T19:48:02.566Z,9.84
2022-10-13T19:50:29.048Z,9.79
2022-10-13T19:52:55.460Z,9.76
2022-10-13T19:55:21.951Z,9.72
2022-10-13T19:57:48.358Z,9.73
2022-10-13T20:00:16.317Z,9.66
2022-10-13T20:02:42.701Z,9.65
2022-10-13T20:05:09.306Z,9.59
2022-10-13T20:07:35.811Z,9.52
2022-10-13T20:10:02.248Z,9.52
2022-10-13T20:12:29.244Z,9.50
2022-10-13T20:14:55.705Z,9.51
2022-10-13T20:17:22.276Z,9.44
2022-10-13T20:19:48.981Z,9.37
2022-10-13T20:22:15.375Z,9.35
2022-10-13T20:24:41.713Z,9.35
2022-10-13T20:27:08.069Z,9.40
2022-10-13T20:29:34.684Z,9.48
2022-10-13T20:32:01.171Z,9.53
2022-10-13T20:34:27.565Z,9.62
2022-10-13T20:36:53.985Z,9.65
2022-10-13T20:39:20.385Z,9.62
2022-10-13T20:41:46.779Z,9.66
2022-10-13T20:44:13.350Z,9.67
2022-10-13T20:46:39.969Z,9.67
2022-10-13T20:49:10.893Z,9.67
2022-10-13T20:51:38.989Z,9.68
2022-10-13T20:54:06.071Z,9.69
2022-10-13T20:56:32.464Z,9.73
2022-10-13T20:59:03.547Z,9.67
2022-10-13T21:01:29.973Z,9.67
2022-10-13T21:03:56.554Z,9.75
2022-10-13T21:06:24.917Z,9.71
2022-10-13T21:08:52.115Z,9.72
2022-10-13T21:11:20.465Z,9.73
2022-10-13T21:13:48.460Z,9.72
2022-10-13T21:16:23.435Z,9.71
2022-10-13T21:18:51.528Z,9.67
2022-10-13T21:21:20.893Z,9.61
2022-10-13T21:23:51.475Z,9.57
2022-10-13T21:26:21.583Z,9.50
2022-10-13T21:28:49.063Z,9.55
2022-10-13T21:31:17.435Z,9.53
2022-10-13T21:33:44.138Z,9.41
2022-10-13T21:36:17.104Z,9.26
2022-10-13T21:38:45.274Z,9.38
2022-10-13T21:41:13.737Z,9.32
2022-10-13T21:43:40.470Z,9.27
2022-10-13T21:46:21.575Z,9.17
2022-10-13T21:48:48.962Z,9.15
2022-10-13T21:51:22.293Z,9.12
2022-10-13T21:54:04.774Z,9.26
2022-10-13T21:56:32.590Z,9.29
2022-10-13T21:58:59.036Z,9.30
2022-10-13T22:01:25.772Z,9.26
2022-10-13T22:03:55.234Z,9.04
2022-10-13T22:06:21.738Z,9.01
2022-10-13T22:08:50.692Z,8.90
2022-10-13T22:11:18.127Z,8.88
2022-10-13T22:13:44.925Z,8.89
2022-10-13T22:16:17.499Z,8.78
2022-10-13T22:18:44.693Z,8.68
2022-10-13T22:21:17.885Z,8.56
2022-10-13T22:23:46.729Z,8.49
2022-10-13T22:26:14.648Z,8.46
2022-10-13T22:28:41.142Z,8.51
2022-10-13T22:31:10.200Z,8.42
2022-10-13T22:33:38.286Z,8.39
2022-10-13T22:36:16.383Z,8.34
2022-10-13T22:38:47.317Z,8.34
2022-10-13T22:41:14.989Z,8.30
2022-10-13T22:43:44.086Z,8.21
2022-10-13T22:46:15.321Z,8.20
2022-10-13T22:48:41.924Z,8.20
2022-10-13T22:51:09.418Z,8.29
2022-10-13T22:53:36.556Z,8.27
2022-10-13T22:56:12.929Z,8.35
2022-10-13T22:58:39.367Z,8.32
2022-10-13T23:01:08.605Z,8.26
2022-10-13T23:03:36.158Z,8.13
2022-10-13T23:06:03.342Z,8.07
2022-10-13T23:08:30.378Z,7.88
2022-10-13T23:10:57.915Z,7.81
2022-10-13T23:13:24.833Z,7.81
2022-10-13T23:15:51.242Z,7.93
2022-10-13T23:18:17.569Z,7.89
2022-10-13T23:20:43.946Z,7.82
2022-10-13T23:23:10.347Z,7.80
2022-10-13T23:25:37.842Z,7.77
2022-10-13T23:28:04.975Z,7.74
2022-10-13T23:30:31.525Z,7.78
2022-10-13T23:32:57.888Z,7.98
2022-10-13T23:35:24.439Z,8.13
2022-10-13T23:37:52.699Z,8.20
2022-10-13T23:40:19.456Z,8.10
2022-10-13T23:42:46.012Z,8.17
2022-10-13T23:45:12.398Z,8.21
2022-10-13T23:47:38.807Z,8.25
2022-10-13T23:50:05.753Z,8.26
2022-10-13T23:52:32.178Z,8.28
2022-10-13T23:54:58.522Z,8.29
2022-10-13T23:57:24.973Z,8.32
2022-10-13T23:59:51.375Z,8.34
